Time;durP1;ratioP1;P1;durP2;ratioP2;P2;SDS_P1;SDS_P2;PMS_P1;PMS_P2;Temp;Humidity;BMP_temperature;BMP_pressure;BME280_temperature;BME280_humidity;BME280_pressure;Samples;Min_cycle;Max_cycle;Signal;HPM_P1;HPM_P2
2023/03/19 00:00:52;;;;;;;7.97;3.40;;;;;;;;;;7361574;19;20223;-83
2023/03/19 00:03:18;;;;;;;8.97;4.00;;;;;;;;;;7356479;19;20325;-83
2023/03/19 00:05:49;;;;;;;8.83;3.60;;;;;;;;;;7362456;19;20231;-79
2023/03/19 00:08:14;;;;;;;10.52;3.03;;;;;;;;;;7358460;19;20267;-79
2023/03/19 00:10:39;;;;;;;9.13;3.00;;;;;;;;;;7354644;19;19998;-80
2023/03/19 00:13:05;;;;;;;9.95;3.38;;;;;;;;;;7361272;19;20021;-78
2023/03/19 00:15:31;;;;;;;10.48;3.33;;;;;;;;;;7364817;19;20425;-79
2023/03/19 00:17:56;;;;;;;10.63;3.63;;;;;;;;;;7355742;19;20006;-80
2023/03/19 00:20:21;;;;;;;7.50;2.83;;;;;;;;;;7361049;19;20034;-80
2023/03/19 00:22:46;;;;;;;8.53;3.43;;;;;;;;;;7360436;19;20077;-78
2023/03/19 00:25:12;;;;;;;8.90;3.20;;;;;;;;;;7361788;19;20243;-78
2023/03/19 00:27:37;;;;;;;12.63;3.08;;;;;;;;;;7358042;19;20243;-80
2023/03/19 00:30:04;;;;;;;9.32;3.22;;;;;;;;;;7365500;19;19998;-81
2023/03/19 00:32:29;;;;;;;11.00;3.40;;;;;;;;;;7360816;19;20010;-82
2023/03/19 00:34:54;;;;;;;10.43;3.33;;;;;;;;;;7361078;19;19994;-81
2023/03/19 00:37:19;;;;;;;14.20;3.42;;;;;;;;;;7358880;19;20310;-84
2023/03/19 00:39:44;;;;;;;12.00;3.45;;;;;;;;;;7359086;19;20290;-79
2023/03/19 00:42:09;;;;;;;8.52;3.42;;;;;;;;;;7360350;19;20229;-82
2023/03/19 00:44:34;;;;;;;8.30;3.28;;;;;;;;;;7362104;19;20010;-82
2023/03/19 00:47:00;;;;;;;8.90;3.72;;;;;;;;;;7356971;19;20032;-80
2023/03/19 00:49:25;;;;;;;11.40;4.15;;;;;;;;;;7362846;19;19998;-80
2023/03/19 00:51:50;;;;;;;10.52;4.05;;;;;;;;;;7360049;19;20562;-81
2023/03/19 00:54:15;;;;;;;10.40;3.85;;;;;;;;;;7358601;19;20006;-81
2023/03/19 00:56:41;;;;;;;9.00;3.58;;;;;;;;;;7358394;19;20240;-83
2023/03/19 00:59:06;;;;;;;9.32;3.60;;;;;;;;;;7361280;19;20030;-79
2023/03/19 01:01:31;;;;;;;10.52;3.85;;;;;;;;;;7357363;19;20006;-80
2023/03/19 01:03:57;;;;;;;12.05;3.78;;;;;;;;;;7356635;19;20101;-85
2023/03/19 01:06:22;;;;;;;8.88;3.60;;;;;;;;;;7362767;19;20009;-81
2023/03/19 01:08:47;;;;;;;6.70;3.33;;;;;;;;;;7354611;19;20002;-83
2023/03/19 01:11:13;;;;;;;10.17;3.80;;;;;;;;;;7359442;19;20807;-80
2023/03/19 01:13:39;;;;;;;6.95;3.55;;;;;;;;;;7361993;19;20235;-84
2023/03/19 01:16:04;;;;;;;8.18;3.80;;;;;;;;;;7365456;19;20094;-80
2023/03/19 01:18:30;;;;;;;8.93;3.70;;;;;;;;;;7363466;19;20337;-82
2023/03/19 01:20:55;;;;;;;10.27;3.35;;;;;;;;;;7361703;19;20026;-80
2023/03/19 01:23:20;;;;;;;7.40;3.63;;;;;;;;;;7359322;19;20633;-83
2023/03/19 01:25:46;;;;;;;13.32;4.05;;;;;;;;;;7359659;19;19999;-82
2023/03/19 01:28:11;;;;;;;8.25;3.58;;;;;;;;;;7360988;19;20012;-81
2023/03/19 01:30:39;;;;;;;11.85;3.92;;;;;;;;;;7364878;19;20055;-80
2023/03/19 01:33:05;;;;;;;10.18;3.53;;;;;;;;;;7355133;19;20313;-78
2023/03/19 01:35:30;;;;;;;8.63;2.75;;;;;;;;;;7365881;19;20010;-81
2023/03/19 01:37:55;;;;;;;6.77;3.37;;;;;;;;;;7362871;19;19999;-81
2023/03/19 01:40:20;;;;;;;9.40;3.33;;;;;;;;;;7361389;19;20227;-80
2023/03/19 01:43:05;;;;;;;9.37;3.93;;;;;;;;;;7358506;19;20744;-84
2023/03/19 01:45:32;;;;;;;7.72;3.40;;;;;;;;;;7368902;19;20279;-81
2023/03/19 01:47:57;;;;;;;13.57;3.83;;;;;;;;;;7335433;19;20002;-81
2023/03/19 01:50:39;;;;;;;8.80;3.50;;;;;;;;;;7366968;19;20010;-82
2023/03/19 01:53:04;;;;;;;7.63;3.20;;;;;;;;;;7319592;19;20458;-79
2023/03/19 01:55:30;;;;;;;9.30;3.42;;;;;;;;;;7366403;19;20034;-82
2023/03/19 01:57:55;;;;;;;7.10;3.78;;;;;;;;;;7360899;19;20010;-82
2023/03/19 02:00:21;;;;;;;9.93;3.42;;;;;;;;;;7360624;19;20061;-84
2023/03/19 02:02:48;;;;;;;6.22;3.05;;;;;;;;;;7361435;19;20015;-84
2023/03/19 02:05:16;;;;;;;7.57;3.05;;;;;;;;;;7369087;19;20423;-82
2023/03/19 02:07:43;;;;;;;8.07;3.38;;;;;;;;;;7355260;19;20022;-82
2023/03/19 02:10:10;;;;;;;7.75;3.53;;;;;;;;;;7356958;19;20022;-82
2023/03/19 02:12:35;;;;;;;6.90;3.35;;;;;;;;;;7363671;19;19998;-82
2023/03/19 02:15:01;;;;;;;9.63;3.42;;;;;;;;;;7366059;19;20006;-84
2023/03/19 02:17:31;;;;;;;7.35;3.53;;;;;;;;;;7357345;19;20010;-81
2023/03/19 02:19:58;;;;;;;7.15;3.47;;;;;;;;;;7363013;19;20006;-82
2023/03/19 02:22:26;;;;;;;9.50;3.58;;;;;;;;;;7366993;19;20002;-85
2023/03/19 02:24:57;;;;;;;10.32;3.90;;;;;;;;;;7363223;19;20171;-82
2023/03/19 02:27:22;;;;;;;9.50;3.85;;;;;;;;;;7364305;19;20022;-81
2023/03/19 02:29:48;;;;;;;8.07;3.70;;;;;;;;;;7369086;19;20015;-83
2023/03/19 02:32:13;;;;;;;9.27;3.67;;;;;;;;;;7357056;19;20607;-86
2023/03/19 02:34:39;;;;;;;9.10;3.83;;;;;;;;;;7365074;19;20078;-81
2023/03/19 02:37:11;;;;;;;7.97;3.28;;;;;;;;;;7362566;19;20008;-81
2023/03/19 02:39:47;;;;;;;9.85;3.90;;;;;;;;;;7362972;19;20066;-84
2023/03/19 02:42:13;;;;;;;8.93;4.18;;;;;;;;;;7365918;19;19995;-80
2023/03/19 02:44:38;;;;;;;9.77;3.47;;;;;;;;;;7367884;19;20025;-78
2023/03/19 02:47:04;;;;;;;8.25;3.72;;;;;;;;;;7359644;19;20512;-82
2023/03/19 02:49:29;;;;;;;10.57;3.47;;;;;;;;;;7363040;19;20102;-79
2023/03/19 02:51:54;;;;;;;7.53;3.67;;;;;;;;;;7365827;19;20012;-78
2023/03/19 02:54:20;;;;;;;6.85;3.28;;;;;;;;;;7275170;19;20284;-84
2023/03/19 02:56:45;;;;;;;8.18;3.28;;;;;;;;;;7250276;19;20478;-84
2023/03/19 02:59:10;;;;;;;7.00;3.50;;;;;;;;;;7263929;19;20003;-83
2023/03/19 03:01:36;;;;;;;9.07;3.50;;;;;;;;;;7262603;19;20398;-83
2023/03/19 03:04:01;;;;;;;10.45;3.50;;;;;;;;;;7265376;19;20373;-79
2023/03/19 03:06:26;;;;;;;8.32;3.35;;;;;;;;;;7262142;19;21087;-84
2023/03/19 03:08:52;;;;;;;7.03;3.58;;;;;;;;;;7254080;19;20379;-85
2023/03/19 03:11:17;;;;;;;7.25;3.30;;;;;;;;;;7258011;19;20554;-84
2023/03/19 03:13:42;;;;;;;7.90;3.60;;;;;;;;;;7262108;19;20454;-83
2023/03/19 03:16:07;;;;;;;7.33;3.30;;;;;;;;;;7262541;19;20607;-85
2023/03/19 03:18:32;;;;;;;6.55;3.28;;;;;;;;;;7260864;19;20871;-85
2023/03/19 03:20:58;;;;;;;5.57;3.10;;;;;;;;;;7258444;19;20884;-84
2023/03/19 03:23:23;;;;;;;6.63;3.22;;;;;;;;;;7266158;19;20014;-84
2023/03/19 03:25:49;;;;;;;8.90;3.35;;;;;;;;;;7258690;19;19998;-84
2023/03/19 03:28:14;;;;;;;7.20;3.20;;;;;;;;;;7265198;19;20453;-85
2023/03/19 03:30:39;;;;;;;9.00;3.60;;;;;;;;;;7262713;19;20242;-86
2023/03/19 03:33:04;;;;;;;7.20;3.28;;;;;;;;;;7262476;19;20872;-83
2023/03/19 03:35:29;;;;;;;7.93;3.00;;;;;;;;;;7274454;19;19994;-83
2023/03/19 03:37:55;;;;;;;8.85;2.70;;;;;;;;;;7261623;19;20242;-81
2023/03/19 03:40:20;;;;;;;5.93;3.05;;;;;;;;;;7276110;19;20263;-86
2023/03/19 03:42:45;;;;;;;6.10;3.00;;;;;;;;;;7262258;19;20003;-84
2023/03/19 03:45:11;;;;;;;10.07;4.07;;;;;;;;;;7267843;19;20272;-80
2023/03/19 03:47:36;;;;;;;7.57;2.83;;;;;;;;;;7256775;19;20255;-84
2023/03/19 03:50:03;;;;;;;6.80;3.38;;;;;;;;;;7261559;19;20356;-83
2023/03/19 03:52:30;;;;;;;6.00;3.40;;;;;;;;;;7260059;19;20461;-82
2023/03/19 03:54:55;;;;;;;7.85;3.78;;;;;;;;;;7358582;19;20006;-84
2023/03/19 03:57:20;;;;;;;6.05;3.30;;;;;;;;;;7361906;19;20002;-80
2023/03/19 03:59:46;;;;;;;9.43;3.60;;;;;;;;;;7370817;19;20006;-83
2023/03/19 04:02:11;;;;;;;8.07;3.93;;;;;;;;;;7354649;19;20550;-84
2023/03/19 04:04:36;;;;;;;9.07;3.90;;;;;;;;;;7362789;19;20220;-79
2023/03/19 04:07:01;;;;;;;7.32;3.88;;;;;;;;;;7362168;19;20272;-83
2023/03/19 04:09:26;;;;;;;9.03;3.57;;;;;;;;;;7362725;19;20253;-79
2023/03/19 04:11:52;;;;;;;8.48;3.53;;;;;;;;;;7361708;19;20586;-82
2023/03/19 04:14:17;;;;;;;10.10;3.80;;;;;;;;;;7367828;19;19999;-78
2023/03/19 04:16:42;;;;;;;9.43;3.88;;;;;;;;;;7363442;19;20231;-82
2023/03/19 04:19:08;;;;;;;7.35;3.33;;;;;;;;;;7359311;19;20255;-81
2023/03/19 04:21:33;;;;;;;8.47;3.90;;;;;;;;;;7367814;19;20002;-82
2023/03/19 04:23:58;;;;;;;7.43;3.70;;;;;;;;;;7358865;19;20778;-79
2023/03/19 04:26:23;;;;;;;8.00;3.63;;;;;;;;;;7364646;19;20001;-79
2023/03/19 04:28:49;;;;;;;8.23;3.33;;;;;;;;;;7365105;19;19991;-79
2023/03/19 04:31:14;;;;;;;8.55;3.78;;;;;;;;;;7359686;19;20232;-86
2023/03/19 04:33:39;;;;;;;5.20;2.78;;;;;;;;;;7362719;19;20054;-80
2023/03/19 04:36:04;;;;;;;10.07;3.45;;;;;;;;;;7363425;19;19998;-83
2023/03/19 04:38:30;;;;;;;7.50;3.53;;;;;;;;;;7362762;19;19998;-80
2023/03/19 04:40:56;;;;;;;6.78;3.75;;;;;;;;;;7357815;19;20001;-81
2023/03/19 04:43:22;;;;;;;9.88;4.22;;;;;;;;;;7360493;19;20009;-80
2023/03/19 04:45:47;;;;;;;8.00;4.55;;;;;;;;;;7365800;19;20013;-80
2023/03/19 04:48:12;;;;;;;7.53;3.97;;;;;;;;;;7351419;19;20003;-81
2023/03/19 04:50:38;;;;;;;7.78;4.00;;;;;;;;;;7364305;19;20224;-79
2023/03/19 04:53:03;;;;;;;7.53;4.40;;;;;;;;;;7351817;19;20003;-80
2023/03/19 04:55:28;;;;;;;8.63;3.90;;;;;;;;;;7362879;19;20526;-79
2023/03/19 04:57:54;;;;;;;7.23;3.93;;;;;;;;;;7360184;19;20360;-80
2023/03/19 05:00:19;;;;;;;8.80;4.50;;;;;;;;;;7362483;19;20272;-81
2023/03/19 05:02:45;;;;;;;8.80;3.38;;;;;;;;;;7358212;19;20248;-80
2023/03/19 05:05:12;;;;;;;8.05;4.43;;;;;;;;;;7364282;19;19990;-80
2023/03/19 05:07:37;;;;;;;9.60;4.25;;;;;;;;;;7359351;19;20003;-83
2023/03/19 05:10:03;;;;;;;7.97;4.22;;;;;;;;;;7363414;19;20296;-79
2023/03/19 05:12:28;;;;;;;8.38;4.43;;;;;;;;;;7361272;19;20271;-81
2023/03/19 05:14:53;;;;;;;8.00;4.00;;;;;;;;;;7358420;19;20121;-79
2023/03/19 05:17:18;;;;;;;8.10;4.20;;;;;;;;;;7357687;19;20307;-81
2023/03/19 05:19:43;;;;;;;9.80;5.00;;;;;;;;;;7356065;19;20283;-82
2023/03/19 05:22:08;;;;;;;8.90;5.00;;;;;;;;;;7360837;19;20007;-84
2023/03/19 05:24:34;;;;;;;9.93;4.97;;;;;;;;;;7352289;19;20010;-80
2023/03/19 05:26:59;;;;;;;9.35;5.22;;;;;;;;;;7360930;19;20007;-82
2023/03/19 05:29:25;;;;;;;9.45;5.13;;;;;;;;;;7368439;19;20239;-79
2023/03/19 05:31:50;;;;;;;9.35;5.18;;;;;;;;;;7363208;19;19999;-80
2023/03/19 05:34:16;;;;;;;8.32;5.30;;;;;;;;;;7359338;19;20013;-81
2023/03/19 05:36:41;;;;;;;9.73;5.32;;;;;;;;;;7366831;19;20431;-79
2023/03/19 05:39:06;;;;;;;11.00;5.37;;;;;;;;;;7360452;19;20319;-79
2023/03/19 05:41:32;;;;;;;10.05;6.03;;;;;;;;;;7365246;19;20227;-78
2023/03/19 05:43:57;;;;;;;11.30;5.87;;;;;;;;;;7358774;19;20001;-81
2023/03/19 05:46:23;;;;;;;10.17;5.33;;;;;;;;;;7354098;19;20255;-78
2023/03/19 05:48:48;;;;;;;11.65;5.72;;;;;;;;;;7365638;19;20235;-78
2023/03/19 05:51:13;;;;;;;9.70;5.83;;;;;;;;;;7363978;19;20451;-78
2023/03/19 05:53:38;;;;;;;11.35;6.07;;;;;;;;;;7364561;19;20250;-82
2023/03/19 05:56:03;;;;;;;12.05;6.30;;;;;;;;;;7369244;19;20006;-83
2023/03/19 05:58:29;;;;;;;10.75;6.30;;;;;;;;;;7373804;19;20095;-81
2023/03/19 06:00:58;;;;;;;13.38;6.38;;;;;;;;;;7372075;19;20350;-85
2023/03/19 06:03:25;;;;;;;16.92;6.55;;;;;;;;;;7366159;19;20527;-82
2023/03/19 06:05:50;;;;;;;11.45;6.63;;;;;;;;;;7373360;19;20007;-79
2023/03/19 06:08:16;;;;;;;12.02;6.40;;;;;;;;;;7363377;19;20862;-82
2023/03/19 06:10:41;;;;;;;11.80;6.28;;;;;;;;;;7369509;19;20009;-79
2023/03/19 06:13:06;;;;;;;11.52;7.25;;;;;;;;;;7366539;19;20022;-79
2023/03/19 06:15:31;;;;;;;12.63;7.47;;;;;;;;;;7372142;19;19999;-80
2023/03/19 06:17:56;;;;;;;11.00;7.57;;;;;;;;;;7366368;19;20005;-84
2023/03/19 06:20:21;;;;;;;12.70;6.88;;;;;;;;;;7372693;19;20070;-79
2023/03/19 06:22:47;;;;;;;11.10;7.50;;;;;;;;;;7366997;19;20223;-79
2023/03/19 06:25:12;;;;;;;13.30;7.30;;;;;;;;;;7366434;19;20271;-82
2023/03/19 06:27:37;;;;;;;12.32;6.65;;;;;;;;;;7366054;19;20344;-82
2023/03/19 06:30:02;;;;;;;13.60;6.60;;;;;;;;;;7368997;19;20014;-83
2023/03/19 06:32:28;;;;;;;10.57;6.90;;;;;;;;;;7364571;19;20235;-81
2023/03/19 06:34:55;;;;;;;12.80;7.35;;;;;;;;;;7369503;19;19994;-81
2023/03/19 06:37:20;;;;;;;11.82;6.63;;;;;;;;;;7364570;19;20278;-80
2023/03/19 06:39:45;;;;;;;12.60;6.87;;;;;;;;;;7369564;19;19999;-79
2023/03/19 06:42:10;;;;;;;12.88;7.53;;;;;;;;;;7365818;19;20273;-80
2023/03/19 06:44:36;;;;;;;12.13;6.75;;;;;;;;;;7371681;19;20439;-82
2023/03/19 06:47:01;;;;;;;14.32;7.32;;;;;;;;;;7364091;19;20077;-83
2023/03/19 06:49:26;;;;;;;11.30;7.03;;;;;;;;;;7372609;19;20047;-82
2023/03/19 06:51:51;;;;;;;11.85;6.10;;;;;;;;;;7373386;19;20261;-83
2023/03/19 06:54:17;;;;;;;11.73;6.17;;;;;;;;;;7364614;19;20227;-80
2023/03/19 06:56:42;;;;;;;14.10;6.28;;;;;;;;;;7371216;19;20383;-79
2023/03/19 06:59:11;;;;;;;9.50;6.40;;;;;;;;;;7370003;19;20357;-82
2023/03/19 07:01:36;;;;;;;9.18;5.43;;;;;;;;;;7368237;19;20247;-79
2023/03/19 07:04:01;;;;;;;13.68;6.13;;;;;;;;;;7365293;19;20001;-82
2023/03/19 07:06:26;;;;;;;12.27;6.67;;;;;;;;;;7370865;19;21143;-80
2023/03/19 07:08:51;;;;;;;9.63;5.87;;;;;;;;;;7338616;19;20261;-80
2023/03/19 07:11:17;;;;;;;10.67;6.27;;;;;;;;;;7368399;19;20851;-80
2023/03/19 07:13:42;;;;;;;9.13;5.50;;;;;;;;;;7366688;19;20282;-82
2023/03/19 07:16:07;;;;;;;12.30;5.82;;;;;;;;;;7361932;19;20007;-82
2023/03/19 07:18:32;;;;;;;10.32;6.18;;;;;;;;;;7370283;19;20006;-81
2023/03/19 07:20:58;;;;;;;9.80;5.90;;;;;;;;;;7370740;19;20002;-79
2023/03/19 07:23:23;;;;;;;9.63;5.47;;;;;;;;;;7364108;19;20255;-81
2023/03/19 07:25:48;;;;;;;10.57;5.10;;;;;;;;;;7371138;19;20234;-80
2023/03/19 07:28:14;;;;;;;10.95;5.93;;;;;;;;;;7363631;19;20260;-79
2023/03/19 07:30:39;;;;;;;9.85;5.60;;;;;;;;;;7369419;19;20266;-82
2023/03/19 07:33:06;;;;;;;10.60;5.60;;;;;;;;;;7364500;19;20608;-83
2023/03/19 07:35:31;;;;;;;10.40;5.97;;;;;;;;;;7367941;19;20262;-81
2023/03/19 07:37:56;;;;;;;9.27;5.68;;;;;;;;;;7364790;19;20002;-80
2023/03/19 07:40:21;;;;;;;12.27;5.50;;;;;;;;;;7364610;19;20534;-82
2023/03/19 07:42:46;;;;;;;10.10;6.10;;;;;;;;;;7369751;19;20468;-81
2023/03/19 07:45:12;;;;;;;12.27;5.60;;;;;;;;;;7364394;19;19999;-81
2023/03/19 07:47:37;;;;;;;11.23;5.72;;;;;;;;;;7363377;19;20587;-80
2023/03/19 07:50:02;;;;;;;12.18;5.55;;;;;;;;;;7363114;19;20003;-83
2023/03/19 07:52:27;;;;;;;11.18;5.70;;;;;;;;;;7363159;19;20447;-83
2023/03/19 07:54:53;;;;;;;11.30;5.67;;;;;;;;;;7368179;19;19998;-81
2023/03/19 07:57:18;;;;;;;9.45;5.60;;;;;;;;;;7365206;19;20619;-82
2023/03/19 07:59:44;;;;;;;10.48;5.07;;;;;;;;;;7371260;19;20113;-82
2023/03/19 08:02:10;;;;;;;10.52;5.30;;;;;;;;;;7364302;19;20006;-80
2023/03/19 08:04:36;;;;;;;10.70;5.32;;;;;;;;;;7369428;19;20013;-80
2023/03/19 08:07:01;;;;;;;10.82;6.18;;;;;;;;;;7365995;19;20074;-85
2023/03/19 08:09:26;;;;;;;10.20;5.93;;;;;;;;;;7339330;19;20450;-83
2023/03/19 08:11:51;;;;;;;8.93;5.40;;;;;;;;;;7371558;19;20066;-81
2023/03/19 08:14:21;;;;;;;10.10;6.13;;;;;;;;;;7364439;19;19998;-80
2023/03/19 08:16:46;;;;;;;11.32;5.72;;;;;;;;;;7365122;19;20266;-83
2023/03/19 08:19:12;;;;;;;10.57;6.13;;;;;;;;;;7359679;19;20003;-81
2023/03/19 08:21:37;;;;;;;11.23;5.60;;;;;;;;;;7369127;19;20006;-82
2023/03/19 08:24:02;;;;;;;11.93;6.50;;;;;;;;;;7361849;19;19999;-84
2023/03/19 08:26:27;;;;;;;11.98;7.30;;;;;;;;;;7367878;19;20583;-80
2023/03/19 08:28:53;;;;;;;14.18;7.43;;;;;;;;;;7368257;19;20463;-83
2023/03/19 08:31:18;;;;;;;13.30;7.50;;;;;;;;;;7362264;19;20013;-80
2023/03/19 08:33:43;;;;;;;13.05;7.22;;;;;;;;;;7367542;19;20095;-81
2023/03/19 08:36:10;;;;;;;11.98;7.50;;;;;;;;;;7365971;19;20001;-82
2023/03/19 08:38:36;;;;;;;15.40;7.22;;;;;;;;;;7357222;19;20011;-81
2023/03/19 08:41:03;;;;;;;14.27;7.90;;;;;;;;;;7366790;19;20004;-83
2023/03/19 08:43:29;;;;;;;15.63;8.13;;;;;;;;;;7364959;19;20096;-82
2023/03/19 08:45:54;;;;;;;11.23;7.38;;;;;;;;;;7364459;19;20023;-84
2023/03/19 08:48:19;;;;;;;15.50;7.72;;;;;;;;;;7363306;19;20054;-80
2023/03/19 08:50:45;;;;;;;13.88;8.13;;;;;;;;;;7368754;19;19995;-81
2023/03/19 08:53:10;;;;;;;17.80;8.82;;;;;;;;;;7361280;19;20070;-80
2023/03/19 08:55:35;;;;;;;14.48;7.82;;;;;;;;;;7368667;19;20017;-82
2023/03/19 08:58:00;;;;;;;14.48;8.10;;;;;;;;;;7365766;19;20054;-81
2023/03/19 09:00:26;;;;;;;14.73;8.48;;;;;;;;;;7368180;19;20013;-81
2023/03/19 09:02:51;;;;;;;18.00;7.90;;;;;;;;;;7359596;19;19998;-82
2023/03/19 09:05:21;;;;;;;14.43;7.80;;;;;;;;;;7363130;19;20005;-81
2023/03/19 09:07:46;;;;;;;15.35;7.78;;;;;;;;;;7351804;19;20017;-81
2023/03/19 09:10:11;;;;;;;11.57;7.70;;;;;;;;;;7362108;19;20455;-80
2023/03/19 09:12:36;;;;;;;12.13;7.10;;;;;;;;;;7355311;19;20254;-81
2023/03/19 09:15:02;;;;;;;14.23;6.63;;;;;;;;;;7365468;19;20098;-82
2023/03/19 09:17:27;;;;;;;13.57;7.75;;;;;;;;;;7365356;19;20580;-80
2023/03/19 09:19:52;;;;;;;10.82;6.57;;;;;;;;;;7369067;19;20118;-84
2023/03/19 09:22:17;;;;;;;13.18;7.32;;;;;;;;;;7365408;19;20074;-80
2023/03/19 09:24:43;;;;;;;16.47;7.87;;;;;;;;;;7364826;19;20329;-80
2023/03/19 09:27:08;;;;;;;11.63;7.50;;;;;;;;;;7364515;19;20262;-85
2023/03/19 09:29:33;;;;;;;14.50;7.30;;;;;;;;;;7369889;19;20519;-80
2023/03/19 09:31:59;;;;;;;11.90;7.18;;;;;;;;;;7372973;19;20010;-80
2023/03/19 09:34:24;;;;;;;14.55;8.23;;;;;;;;;;7362241;19;20118;-82
2023/03/19 09:36:50;;;;;;;10.40;6.90;;;;;;;;;;7366635;19;20130;-84
2023/03/19 09:39:15;;;;;;;12.40;7.68;;;;;;;;;;7359501;19;20003;-81
2023/03/19 09:42:02;;;;;;;11.33;7.23;;;;;;;;;;7360451;19;20090;-81
2023/03/19 09:44:29;;;;;;;11.75;7.03;;;;;;;;;;7365980;19;20247;-80
2023/03/19 09:46:57;;;;;;;13.27;6.68;;;;;;;;;;7366419;19;20436;-81
2023/03/19 09:49:27;;;;;;;12.20;7.00;;;;;;;;;;7368802;19;20056;-82
2023/03/19 09:51:54;;;;;;;9.80;6.63;;;;;;;;;;7373985;19;20046;-81
2023/03/19 09:54:30;;;;;;;11.13;6.70;;;;;;;;;;7365474;19;20002;-85
2023/03/19 09:56:55;;;;;;;11.43;6.13;;;;;;;;;;7374585;19;20006;-84
2023/03/19 09:59:21;;;;;;;9.25;5.80;;;;;;;;;;7365615;19;20006;-80
2023/03/19 10:01:51;;;;;;;9.30;5.78;;;;;;;;;;7342307;19;20015;-83
2023/03/19 10:04:19;;;;;;;10.00;4.65;;;;;;;;;;7368698;19;20030;-81
2023/03/19 10:06:45;;;;;;;9.32;5.05;;;;;;;;;;7362084;19;20535;-85
2023/03/19 10:09:29;;;;;;;7.85;4.75;;;;;;;;;;7367852;19;20002;-80
2023/03/19 10:12:10;;;;;;;8.80;5.22;;;;;;;;;;7371030;19;20677;-82
2023/03/19 10:14:50;;;;;;;10.68;5.47;;;;;;;;;;7355571;19;20002;-80
2023/03/19 10:17:21;;;;;;;9.38;4.53;;;;;;;;;;7347348;19;20244;-84
2023/03/19 10:19:50;;;;;;;11.55;5.07;;;;;;;;;;7369995;19;20002;-81
2023/03/19 10:22:18;;;;;;;11.10;5.18;;;;;;;;;;7365586;19;20382;-82
2023/03/19 10:24:45;;;;;;;8.82;5.50;;;;;;;;;;7365215;19;20023;-80
2023/03/19 10:27:17;;;;;;;10.20;5.20;;;;;;;;;;7360222;19;20006;-80
2023/03/19 10:29:43;;;;;;;8.55;5.03;;;;;;;;;;7372808;19;19998;-81
2023/03/19 10:32:14;;;;;;;9.07;4.70;;;;;;;;;;7362011;19;20001;-83
2023/03/19 10:34:42;;;;;;;9.88;4.95;;;;;;;;;;7364626;19;20310;-82
2023/03/19 10:37:19;;;;;;;9.15;4.55;;;;;;;;;;7348599;19;20074;-85
2023/03/19 10:39:45;;;;;;;10.82;5.03;;;;;;;;;;7367419;19;20026;-80
2023/03/19 10:42:29;;;;;;;6.90;4.15;;;;;;;;;;7366720;19;19999;-81
2023/03/19 10:44:54;;;;;;;7.40;4.93;;;;;;;;;;7370618;19;20026;-84
2023/03/19 10:47:23;;;;;;;12.05;5.18;;;;;;;;;;7363076;19;20006;-81
2023/03/19 10:49:49;;;;;;;7.72;4.60;;;;;;;;;;7360782;19;20347;-80
2023/03/19 10:52:16;;;;;;;11.45;5.55;;;;;;;;;;7368602;19;20019;-82
2023/03/19 10:54:43;;;;;;;8.65;5.22;;;;;;;;;;7368038;19;20002;-79
2023/03/19 10:57:20;;;;;;;11.25;5.82;;;;;;;;;;7363444;19;20018;-85
2023/03/19 10:59:46;;;;;;;9.95;5.65;;;;;;;;;;7372356;19;20111;-80
2023/03/19 11:02:18;;;;;;;8.88;5.68;;;;;;;;;;7364712;19;20002;-82
2023/03/19 11:04:44;;;;;;;9.65;5.35;;;;;;;;;;7372753;19;20006;-81
2023/03/19 11:07:19;;;;;;;9.60;6.43;;;;;;;;;;7356827;19;20015;-83
2023/03/19 11:09:45;;;;;;;9.13;6.25;;;;;;;;;;7364376;19;20533;-81
2023/03/19 11:12:16;;;;;;;10.52;6.22;;;;;;;;;;7362898;19;20050;-82
2023/03/19 11:14:44;;;;;;;12.98;6.18;;;;;;;;;;7372364;19;20005;-80
2023/03/19 11:17:15;;;;;;;11.27;5.80;;;;;;;;;;7367089;19;20070;-80
2023/03/19 11:19:42;;;;;;;8.77;5.18;;;;;;;;;;7368085;19;20003;-80
2023/03/19 11:22:09;;;;;;;11.55;4.85;;;;;;;;;;7371300;19;20412;-80
2023/03/19 11:24:39;;;;;;;5.50;2.90;;;;;;;;;;7359749;19;20029;-79
2023/03/19 11:27:05;;;;;;;7.50;3.33;;;;;;;;;;7369444;19;20002;-81
2023/03/19 11:29:30;;;;;;;5.72;2.90;;;;;;;;;;7367544;19;20017;-80
2023/03/19 11:32:22;;;;;;;6.63;2.60;;;;;;;;;;7365293;19;20014;-79
2023/03/19 11:34:49;;;;;;;5.15;2.08;;;;;;;;;;7367004;19;19999;-79
2023/03/19 11:37:41;;;;;;;7.03;2.28;;;;;;;;;;7358680;19;20724;-82
2023/03/19 11:40:19;;;;;;;4.25;1.70;;;;;;;;;;7370266;19;20022;-79
2023/03/19 11:42:51;;;;;;;7.22;2.17;;;;;;;;;;7365371;19;20381;-79
2023/03/19 11:45:16;;;;;;;4.65;1.80;;;;;;;;;;7368025;19;19999;-82
2023/03/19 11:47:48;;;;;;;5.88;1.48;;;;;;;;;;7363761;19;20019;-80
2023/03/19 11:50:17;;;;;;;3.55;1.42;;;;;;;;;;7366349;19;20006;-82
2023/03/19 11:53:01;;;;;;;5.07;1.60;;;;;;;;;;7356012;19;20050;-81
2023/03/19 11:55:26;;;;;;;;;;;;;;;;;;7371110;19;20026;-79
2023/03/19 11:57:56;;;;;;;5.25;2.05;;;;;;;;;;7369296;19;20285;-79
2023/03/19 12:00:40;;;;;;;5.97;2.40;;;;;;;;;;7364268;19;19998;-81
2023/03/19 12:03:20;;;;;;;4.60;2.08;;;;;;;;;;7357481;19;20002;-80
2023/03/19 12:06:12;;;;;;;4.70;2.17;;;;;;;;;;7361518;19;20017;-83
2023/03/19 12:09:03;;;;;;;5.53;2.10;;;;;;;;;;7353289;19;19995;-80
2023/03/19 12:11:35;;;;;;;4.70;2.17;;;;;;;;;;7364158;19;20027;-79
2023/03/19 12:14:07;;;;;;;6.13;2.38;;;;;;;;;;7364515;19;20010;-81
2023/03/19 12:16:32;;;;;;;4.05;1.80;;;;;;;;;;7358372;19;20014;-80
2023/03/19 12:19:16;;;;;;;5.38;1.73;;;;;;;;;;7355897;19;19998;-79
2023/03/19 12:22:00;;;;;;;4.43;1.98;;;;;;;;;;7353510;19;20668;-80
2023/03/19 12:24:45;;;;;;;5.25;1.67;;;;;;;;;;7352265;19;20031;-79
2023/03/19 12:27:23;;;;;;;4.80;1.30;;;;;;;;;;7363275;19;20468;-81
2023/03/19 12:29:54;;;;;;;6.47;1.92;;;;;;;;;;7360190;19;20532;-80
2023/03/19 12:32:42;;;;;;;3.72;1.15;;;;;;;;;;7356786;19;19999;-82
2023/03/19 12:35:10;;;;;;;3.15;1.17;;;;;;;;;;7363546;19;20074;-79
2023/03/19 12:37:41;;;;;;;2.40;0.95;;;;;;;;;;7355196;19;20042;-82
2023/03/19 12:40:26;;;;;;;2.22;0.88;;;;;;;;;;7364044;19;20115;-80
2023/03/19 12:42:52;;;;;;;3.67;1.08;;;;;;;;;;7358937;19;20062;-83
2023/03/19 12:45:21;;;;;;;3.25;1.15;;;;;;;;;;7348595;19;19998;-82
2023/03/19 12:47:46;;;;;;;3.47;1.10;;;;;;;;;;7348496;19;20526;-79
2023/03/19 12:50:13;;;;;;;2.85;1.23;;;;;;;;;;7370598;19;20002;-79
2023/03/19 12:52:39;;;;;;;4.15;1.23;;;;;;;;;;7358831;19;20303;-80
2023/03/19 12:55:22;;;;;;;3.75;1.08;;;;;;;;;;7366073;19;20022;-81
2023/03/19 12:57:47;;;;;;;2.77;1.07;;;;;;;;;;7367318;19;20487;-79
2023/03/19 13:00:15;;;;;;;2.67;1.02;;;;;;;;;;7369946;19;20455;-79
2023/03/19 13:02:59;;;;;;;2.53;1.00;;;;;;;;;;7369682;19;20010;-82
2023/03/19 13:05:27;;;;;;;2.97;1.02;;;;;;;;;;7353628;19;20014;-80
2023/03/19 13:08:15;;;;;;;2.65;1.00;;;;;;;;;;7367301;19;20082;-82
2023/03/19 13:10:41;;;;;;;2.97;0.88;;;;;;;;;;7367181;19;20002;-80
2023/03/19 13:13:16;;;;;;;3.80;1.20;;;;;;;;;;7370963;19;20030;-80
2023/03/19 13:15:45;;;;;;;2.42;1.00;;;;;;;;;;7374688;19;20085;-80
2023/03/19 13:18:13;;;;;;;2.33;1.00;;;;;;;;;;7343842;19;20062;-82
2023/03/19 13:20:48;;;;;;;3.28;1.50;;;;;;;;;;7340497;19;20015;-83
2023/03/19 13:23:17;;;;;;;2.53;1.00;;;;;;;;;;7329206;19;20003;-84
2023/03/19 13:25:46;;;;;;;2.67;0.90;;;;;;;;;;7360277;19;20025;-81
2023/03/19 13:28:17;;;;;;;2.90;1.15;;;;;;;;;;7358396;19;19999;-81
2023/03/19 13:30:57;;;;;;;3.28;1.08;;;;;;;;;;7366527;19;20017;-82
2023/03/19 13:33:23;;;;;;;5.05;1.17;;;;;;;;;;7365662;19;20260;-84
2023/03/19 13:35:49;;;;;;;3.22;1.40;;;;;;;;;;7374921;19;20298;-82
2023/03/19 13:38:31;;;;;;;2.85;1.13;;;;;;;;;;7368395;19;20014;-83
2023/03/19 13:40:57;;;;;;;3.22;1.20;;;;;;;;;;7376630;19;20007;-83
2023/03/19 13:43:22;;;;;;;3.67;1.23;;;;;;;;;;7368970;19;20630;-85
2023/03/19 13:45:51;;;;;;;2.67;1.13;;;;;;;;;;7372198;19;20026;-83
2023/03/19 13:48:23;;;;;;;2.78;1.10;;;;;;;;;;7352336;19;20007;-86
2023/03/19 13:50:53;;;;;;;3.45;1.27;;;;;;;;;;7373055;19;20355;-81
2023/03/19 13:53:31;;;;;;;4.07;1.50;;;;;;;;;;7365880;19;20698;-84
2023/03/19 13:55:58;;;;;;;4.72;1.30;;;;;;;;;;7372240;19;20001;-82
2023/03/19 14:01:10;;;;;;;2.97;1.25;;;;;;;;;;7368961;19;20018;-83
2023/03/19 14:03:38;;;;;;;5.03;1.67;;;;;;;;;;7333493;19;20006;-79
2023/03/19 14:06:04;;;;;;;4.25;1.60;;;;;;;;;;7366728;19;20011;-79
2023/03/19 14:08:41;;;;;;;2.97;0.90;;;;;;;;;;7356857;19;20003;-81
2023/03/19 14:11:07;;;;;;;2.30;0.88;;;;;;;;;;7367904;19;20454;-80
2023/03/19 14:13:34;;;;;;;2.67;0.95;;;;;;;;;;7362182;19;19999;-83
2023/03/19 14:16:07;;;;;;;3.63;0.98;;;;;;;;;;7372566;19;20452;-84
2023/03/19 14:18:32;;;;;;;3.95;1.20;;;;;;;;;;7362848;19;20026;-81
2023/03/19 14:21:00;;;;;;;3.85;1.38;;;;;;;;;;7368434;19;19999;-81
2023/03/19 14:23:31;;;;;;;3.38;1.27;;;;;;;;;;7352391;19;20029;-82
2023/03/19 14:26:04;;;;;;;4.63;1.70;;;;;;;;;;7372687;19;20007;-82
2023/03/19 14:28:29;;;;;;;3.63;1.90;;;;;;;;;;7362255;19;20002;-80
2023/03/19 14:30:54;;;;;;;6.00;2.00;;;;;;;;;;7372206;19;20003;-83
2023/03/19 14:33:31;;;;;;;5.50;1.65;;;;;;;;;;7369848;19;20031;-83
2023/03/19 14:35:57;;;;;;;4.97;1.75;;;;;;;;;;7365364;19;20126;-81
2023/03/19 14:38:42;;;;;;;4.05;1.55;;;;;;;;;;7364687;19;20003;-80
2023/03/19 14:41:13;;;;;;;3.97;1.58;;;;;;;;;;7364561;19;20048;-82
2023/03/19 14:43:55;;;;;;;4.53;1.40;;;;;;;;;;7357457;19;20586;-82